»·PEaware :: N191TB KHQM-S23

N191TB :: KHQM-S23

FLIGHT INFORMATION

Flight Status: Arrived
Operator: Privately registered:
United States
More flights under this callsign
Pilot: Tim F. (26756)
Aircraft: SOCATA TBM-900
(TBM9)
More flights by this aircraft type
Origin: KHQM Bowerman
United States
Destination: S23 Ione Mun
United States
More flights between these airports :: More routes between these airports
Route:
File this flight plan on PilotEdge
Remarks:
Altitude:
(Current/Filed)
13,500ft
Speed:
(Current/Filed)
250kts
Departed: 16-May-20 05:16 PM
Arrived: 16-May-20 06:33 PM
Distance/Time
Traveled:
283nm/1:17
Distance/Time
To Go:
Arrived

Flight Plot

Page will automatically refresh every two minutes.

Flight plan parsing failed; only flown route is shown


Map Options




Map Legend


Flown Route
Filed Route
Departure Airport
Arrival Airport
Navaid (VOR, NDB)
Fix

Horizontal Profiles

Position Reports

Time Latitude Longitude Heading Altitude Ground
Speed
16-May-20 17:08 46.973460 -123.929798 170 21ft 0kts
16-May-20 17:09 46.973460 -123.929798 170 21ft 0kts
16-May-20 17:10 46.973460 -123.929798 170 21ft 0kts
16-May-20 17:11 46.973460 -123.929798 170 21ft 0kts
16-May-20 17:12 46.973460 -123.929798 170 21ft 0kts
16-May-20 17:13 46.973460 -123.929798 170 21ft 0kts
16-May-20 17:14 46.973460 -123.929798 170 21ft 0kts
16-May-20 17:15 46.973283 -123.927458 110 21ft 10kts
16-May-20 17:16 46.969490 -123.952472 261 450ft 123kts
16-May-20 17:17 46.946974 -123.958456 100 2846ft 128kts
16-May-20 17:18 46.949832 -123.907985 97 5321ft 130kts
16-May-20 17:18 46.945533 -123.864021 97 7144ft 134kts
16-May-20 17:20 46.938895 -123.799381 98 9817ft 143kts
16-May-20 17:20 46.933955 -123.751979 98 11971ft 145kts
16-May-20 17:21 46.927275 -123.688119 97 13469ft 200kts
16-May-20 17:23 46.915580 -123.576907 98 13415ft 257kts
16-May-20 17:23 46.906195 -123.489112 98 13409ft 264kts
16-May-20 17:24 46.894714 -123.382425 98 13408ft 266kts
16-May-20 17:25 46.883012 -123.274572 98 13408ft 266kts
16-May-20 17:26 46.871190 -123.166591 98 13408ft 266kts
16-May-20 17:27 46.859359 -123.059484 99 13408ft 266kts
16-May-20 17:28 46.847381 -122.951994 99 13408ft 267kts
16-May-20 17:29 46.835281 -122.844354 99 13408ft 266kts
16-May-20 17:30 46.823142 -122.737311 99 13408ft 266kts
16-May-20 17:31 46.810876 -122.630083 99 13408ft 267kts
16-May-20 17:32 46.798477 -122.522618 99 13408ft 267kts
16-May-20 17:33 46.786025 -122.415610 99 13408ft 267kts
16-May-20 17:34 46.773427 -122.308253 99 13408ft 266kts
16-May-20 17:35 46.775899 -122.203949 57 13423ft 265kts
16-May-20 17:36 46.816080 -122.112708 57 13408ft 266kts
16-May-20 17:37 46.856261 -122.020928 57 13408ft 267kts
16-May-20 17:38 46.896305 -121.929143 57 13408ft 267kts
16-May-20 17:39 46.936332 -121.837089 57 13408ft 267kts
16-May-20 17:40 46.976285 -121.744898 57 13408ft 267kts
16-May-20 17:41 47.016169 -121.652557 57 13408ft 267kts
16-May-20 17:42 47.056059 -121.559887 57 13408ft 267kts
16-May-20 17:43 47.095722 -121.467439 57 13408ft 267kts
16-May-20 17:44 47.134762 -121.376144 57 13408ft 267kts
16-May-20 17:45 47.173988 -121.284093 57 13408ft 267kts
16-May-20 17:46 47.213719 -121.190547 57 13408ft 267kts
16-May-20 17:47 47.253027 -121.097683 57 13408ft 267kts
16-May-20 17:48 47.292413 -121.004319 57 13408ft 267kts
16-May-20 17:49 47.331709 -120.910849 57 13408ft 267kts
16-May-20 17:50 47.370927 -120.817248 57 13408ft 267kts
16-May-20 17:51 47.410030 -120.723594 57 13408ft 267kts
16-May-20 17:52 47.449044 -120.629832 57 13408ft 267kts
16-May-20 17:53 47.487922 -120.536077 57 13408ft 267kts
16-May-20 17:54 47.526811 -120.441968 57 13408ft 267kts
16-May-20 17:55 47.565168 -120.348826 58 13408ft 267kts
16-May-20 17:56 47.604264 -120.253562 58 13408ft 267kts
16-May-20 17:57 47.643055 -120.158712 58 13408ft 267kts
16-May-20 17:58 47.681735 -120.063799 58 13408ft 267kts
16-May-20 17:59 47.720225 -119.969019 58 13408ft 267kts
16-May-20 18:00 47.758593 -119.874212 58 13408ft 267kts
16-May-20 18:01 47.796931 -119.779139 58 13408ft 267kts
16-May-20 18:02 47.835208 -119.683885 58 13408ft 267kts
16-May-20 18:03 47.873244 -119.588894 58 13408ft 267kts
16-May-20 18:04 47.911357 -119.493374 58 13408ft 267kts
16-May-20 18:05 47.949330 -119.397864 58 13408ft 267kts
16-May-20 18:06 47.986776 -119.303354 59 13408ft 267kts
16-May-20 18:07 48.024549 -119.207678 59 13408ft 267kts
16-May-20 18:08 48.062268 -119.111794 59 13408ft 267kts
16-May-20 18:09 48.099953 -119.015652 59 13408ft 267kts
16-May-20 18:10 48.137539 -118.919421 59 13408ft 267kts
16-May-20 18:11 48.175016 -118.823120 59 13408ft 267kts
16-May-20 18:12 48.212578 -118.726247 59 13408ft 267kts
16-May-20 18:13 48.249867 -118.629732 59 13408ft 267kts
16-May-20 18:14 48.287238 -118.532652 59 13408ft 267kts
16-May-20 18:15 48.324449 -118.435630 59 13408ft 267kts
16-May-20 18:16 48.361238 -118.339360 60 13408ft 267kts
16-May-20 18:17 48.398382 -118.241809 60 13408ft 267kts
16-May-20 18:18 48.435329 -118.144419 60 13408ft 267kts
16-May-20 18:19 48.472239 -118.046765 60 13408ft 267kts
16-May-20 18:20 48.509207 -117.948592 60 13408ft 267kts
16-May-20 18:21 48.541422 -117.851798 90 12804ft 246kts
16-May-20 18:22 48.531720 -117.752693 98 11901ft 233kts
16-May-20 18:23 48.521983 -117.656337 98 10875ft 234kts
16-May-20 18:24 48.514065 -117.556533 95 9662ft 236kts
16-May-20 18:25 48.507990 -117.456181 93 8442ft 236kts
16-May-20 18:26 48.508374 -117.363517 69 6707ft 187kts
16-May-20 18:27 48.547762 -117.340272 336 5161ft 162kts
16-May-20 18:28 48.588918 -117.363574 341 4062ft 154kts
16-May-20 18:29 48.629865 -117.381662 341 3891ft 155kts
16-May-20 18:30 48.666966 -117.399015 348 2975ft 120kts
16-May-20 18:31 48.697653 -117.409540 349 2272ft 121kts
16-May-20 18:32 48.713832 -117.414484 91 2110ft 10kts
16-May-20 18:33 48.713785 -117.414347 267 2110ft 0kts
16-May-20 18:34 48.713785 -117.414347 267 2110ft 0kts
16-May-20 18:35 48.713785 -117.414347 267 2110ft 0kts
16-May-20 18:36 48.713785 -117.414347 267 2110ft 0kts
16-May-20 18:37 48.713785 -117.414347 267 2110ft 0kts

Navigation Log

Ident Type
Flight plan parsing failed, navigation log unavailable